Time;durP1;ratioP1;P1;durP2;ratioP2;P2;SDS_P1;SDS_P2;PMS_P1;PMS_P2;Temp;Humidity;BMP_temperature;BMP_pressure;BME280_temperature;BME280_humidity;BME280_pressure;Samples;Min_cycle;Max_cycle;Signal;HPM_P1;HPM_P2
2023/05/06 00:01:47;;;;;;;7.28;3.90;;;12.90;99.90;;;;;;5049745;28;20060;-72
2023/05/06 00:04:14;;;;;;;8.00;4.30;;;12.90;99.90;;;;;;5034649;28;20424;-72
2023/05/06 00:06:40;;;;;;;7.82;4.35;;;12.90;99.90;;;;;;5046867;28;20041;-72
2023/05/06 00:09:06;;;;;;;9.77;4.03;;;12.80;99.90;;;;;;5015027;28;20048;-72
2023/05/06 00:11:31;;;;;;;7.63;3.80;;;12.80;99.90;;;;;;5031592;28;20410;-73
2023/05/06 00:13:57;;;;;;;6.82;4.00;;;12.80;99.90;;;;;;5030665;28;20033;-73
2023/05/06 00:16:22;;;;;;;6.72;3.70;;;12.90;99.90;;;;;;5048796;28;20048;-74
2023/05/06 00:18:48;;;;;;;7.03;3.72;;;12.80;99.90;;;;;;5034650;28;20128;-73
2023/05/06 00:21:14;;;;;;;5.43;3.47;;;12.80;99.90;;;;;;5034373;28;20048;-72
2023/05/06 00:23:40;;;;;;;7.57;3.72;;;12.80;99.90;;;;;;5053643;28;20132;-73
2023/05/06 00:26:05;;;;;;;7.05;3.45;;;12.80;99.90;;;;;;5054540;28;20128;-72
2023/05/06 00:28:32;;;;;;;6.55;3.90;;;12.80;99.90;;;;;;5054350;28;20041;-71
2023/05/06 00:30:57;;;;;;;7.68;4.05;;;12.80;99.90;;;;;;5037355;28;20075;-72
2023/05/06 00:33:23;;;;;;;7.72;4.10;;;12.80;99.90;;;;;;5067652;28;20077;-72
2023/05/06 00:35:50;;;;;;;6.70;3.40;;;12.80;99.90;;;;;;5034638;28;20454;-71
2023/05/06 00:38:16;;;;;;;6.35;3.33;;;12.70;99.90;;;;;;5034346;28;20046;-71
2023/05/06 00:40:42;;;;;;;8.73;3.92;;;12.70;99.90;;;;;;5050839;28;20478;-71
2023/05/06 00:43:07;;;;;;;6.00;3.40;;;12.70;99.90;;;;;;5020778;28;20041;-71
2023/05/06 00:45:33;;;;;;;7.03;3.10;;;12.70;99.90;;;;;;5054063;28;20541;-72
2023/05/06 00:48:00;;;;;;;5.78;3.08;;;12.70;99.90;;;;;;5054035;28;20062;-72
2023/05/06 00:50:31;;;;;;;8.80;3.30;;;12.70;99.90;;;;;;5051595;28;20106;-72
2023/05/06 00:52:58;;;;;;;7.10;4.00;;;12.60;99.90;;;;;;5050494;28;20049;-72
2023/05/06 00:55:24;;;;;;;6.22;3.63;;;12.60;99.90;;;;;;5065299;28;20128;-72
2023/05/06 00:57:50;;;;;;;6.20;3.70;;;12.60;99.90;;;;;;5050469;28;20473;-72
2023/05/06 01:00:18;;;;;;;7.88;4.00;;;12.60;99.90;;;;;;5050782;28;20079;-72
2023/05/06 01:02:43;;;;;;;7.70;3.60;;;12.60;99.90;;;;;;5037163;28;20051;-71
2023/05/06 01:05:10;;;;;;;7.63;4.28;;;12.60;99.90;;;;;;5039625;28;20041;-72
2023/05/06 01:07:39;;;;;;;6.45;4.10;;;12.60;99.90;;;;;;5050430;28;20045;-72
2023/05/06 01:10:32;;;;;;;6.65;3.83;;;12.60;99.90;;;;;;5050653;28;20045;-73
2023/05/06 01:13:20;;;;;;;8.23;3.92;;;12.50;99.90;;;;;;5065939;28;20037;-73
2023/05/06 01:15:51;;;;;;;6.60;3.80;;;12.50;99.90;;;;;;5051808;28;20045;-73
2023/05/06 01:18:21;;;;;;;6.28;3.90;;;12.40;99.90;;;;;;5052837;28;20135;-72
2023/05/06 01:20:49;;;;;;;7.03;4.28;;;12.50;99.90;;;;;;5032664;28;20034;-72
2023/05/06 01:23:16;;;;;;;7.20;3.92;;;12.40;99.90;;;;;;5025044;28;20048;-72
2023/05/06 01:25:42;;;;;;;7.05;3.65;;;12.40;99.90;;;;;;5051778;28;20045;-72
2023/05/06 01:28:10;;;;;;;7.20;4.35;;;12.40;99.90;;;;;;5036489;28;20404;-73
2023/05/06 01:30:51;;;;;;;8.10;4.80;;;12.40;99.90;;;;;;5052818;28;20056;-72
2023/05/06 01:34:01;;;;;;;6.40;3.95;;;12.40;99.90;;;;;;5053199;28;20501;-72
2023/05/06 01:36:39;;;;;;;6.70;3.97;;;12.30;99.90;;;;;;5053433;28;20041;-72
2023/05/06 01:39:13;;;;;;;7.53;4.18;;;12.30;99.90;;;;;;5053452;28;20432;-73
2023/05/06 01:41:40;;;;;;;6.97;3.63;;;12.30;99.90;;;;;;5036182;28;20370;-72
2023/05/06 01:44:07;;;;;;;5.18;3.00;;;12.30;99.90;;;;;;5038761;28;20037;-72
2023/05/06 01:46:33;;;;;;;5.07;3.03;;;12.30;99.90;;;;;;5053349;28;20373;-73
2023/05/06 01:49:02;;;;;;;6.13;3.17;;;12.30;99.90;;;;;;5068443;28;20124;-72
2023/05/06 01:51:28;;;;;;;7.53;3.90;;;12.30;99.90;;;;;;5034763;28;20493;-73
2023/05/06 01:53:54;;;;;;;8.65;4.22;;;12.40;99.90;;;;;;5034508;28;20091;-73
2023/05/06 01:56:19;;;;;;;6.75;4.00;;;12.40;99.90;;;;;;5052881;28;20083;-73
2023/05/06 01:58:45;;;;;;;7.28;4.38;;;12.40;99.90;;;;;;5052802;28;20120;-73
2023/05/06 02:01:10;;;;;;;7.63;5.07;;;12.40;99.90;;;;;;5052296;28;20091;-72
2023/05/06 02:03:36;;;;;;;8.05;4.85;;;12.50;99.90;;;;;;5052601;28;20049;-73
2023/05/06 02:06:02;;;;;;;7.63;4.70;;;12.30;99.90;;;;;;5016352;28;20041;-72
2023/05/06 02:08:27;;;;;;;5.97;3.78;;;12.30;99.90;;;;;;5031201;28;20041;-72
2023/05/06 02:10:53;;;;;;;5.00;2.78;;;12.30;99.90;;;;;;5044588;28;20048;-72
2023/05/06 02:13:18;;;;;;;6.43;3.20;;;12.20;99.90;;;;;;5040594;28;20036;-72
2023/05/06 02:15:45;;;;;;;6.13;3.33;;;12.20;99.90;;;;;;5044764;28;20033;-72
2023/05/06 02:18:10;;;;;;;5.85;3.53;;;12.10;99.90;;;;;;5043384;28;20125;-72
2023/05/06 02:20:36;;;;;;;6.07;2.90;;;12.10;99.90;;;;;;5020267;28;20533;-72
2023/05/06 02:23:02;;;;;;;4.72;3.30;;;12.10;99.90;;;;;;5044158;28;20079;-73
2023/05/06 02:25:28;;;;;;;4.68;2.53;;;12.00;99.90;;;;;;5052261;28;20045;-73
2023/05/06 02:27:53;;;;;;;4.85;2.38;;;12.00;99.90;;;;;;5048582;28;20048;-73
2023/05/06 02:30:19;;;;;;;3.67;2.33;;;12.00;99.90;;;;;;5035822;28;20041;-73
2023/05/06 02:32:45;;;;;;;3.75;2.10;;;11.90;99.90;;;;;;5056435;28;20041;-73
2023/05/06 02:35:11;;;;;;;2.88;2.20;;;11.90;99.90;;;;;;5035529;28;20120;-72
2023/05/06 02:37:37;;;;;;;4.07;2.10;;;11.80;99.90;;;;;;5033288;28;20119;-73
2023/05/06 02:40:05;;;;;;;3.92;2.03;;;11.80;99.90;;;;;;5057732;28;20041;-73
2023/05/06 02:42:31;;;;;;;3.70;2.30;;;11.70;99.90;;;;;;5051085;28;20037;-73
2023/05/06 02:44:56;;;;;;;7.25;3.03;;;11.70;99.90;;;;;;5039890;28;20087;-73
2023/05/06 02:47:22;;;;;;;7.28;4.38;;;11.70;99.90;;;;;;5050600;28;20033;-73
2023/05/06 02:49:47;;;;;;;8.20;4.75;;;11.60;99.90;;;;;;5030777;28;20037;-73
2023/05/06 02:52:13;;;;;;;7.07;4.38;;;11.50;99.90;;;;;;5026593;28;20053;-73
2023/05/06 02:54:38;;;;;;;5.90;3.47;;;11.50;99.90;;;;;;5047432;28;20075;-72
2023/05/06 02:57:04;;;;;;;7.63;3.97;;;11.50;99.90;;;;;;5030817;28;20034;-73
2023/05/06 02:59:29;;;;;;;6.40;3.80;;;11.50;99.90;;;;;;5024554;28;20033;-73
2023/05/06 03:01:55;;;;;;;6.65;3.90;;;11.40;99.90;;;;;;5031682;28;20099;-73
2023/05/06 03:04:21;;;;;;;6.50;3.67;;;11.40;99.90;;;;;;5041740;28;20051;-72
2023/05/06 03:06:46;;;;;;;6.72;3.83;;;11.50;99.90;;;;;;5050902;28;20128;-72
2023/05/06 03:09:12;;;;;;;6.75;4.10;;;11.40;99.90;;;;;;5048426;28;20080;-72
2023/05/06 03:11:37;;;;;;;6.82;3.33;;;11.40;99.90;;;;;;5048490;28;20584;-72
2023/05/06 03:14:03;;;;;;;8.20;4.63;;;11.40;99.90;;;;;;5049027;28;20033;-72
2023/05/06 03:16:29;;;;;;;8.48;4.28;;;11.20;99.90;;;;;;5042584;28;20037;-72
2023/05/06 03:18:54;;;;;;;10.40;4.13;;;11.20;99.90;;;;;;5027703;28;20116;-72
2023/05/06 03:21:20;;;;;;;10.57;3.97;;;11.20;99.90;;;;;;5049128;28;20079;-72
2023/05/06 03:23:45;;;;;;;7.82;3.70;;;11.10;99.90;;;;;;5050165;28;20043;-72
2023/05/06 03:26:11;;;;;;;6.72;3.65;;;11.10;99.90;;;;;;5023932;28;20037;-72
2023/05/06 03:28:37;;;;;;;6.10;3.03;;;11.00;99.90;;;;;;5030505;28;20052;-72
2023/05/06 03:31:02;;;;;;;6.40;3.47;;;11.10;99.90;;;;;;5049363;28;20408;-72
2023/05/06 03:33:28;;;;;;;7.13;3.72;;;11.00;99.90;;;;;;5045594;28;20037;-72
2023/05/06 03:35:53;;;;;;;6.40;3.40;;;11.00;99.90;;;;;;5068400;28;20037;-72
2023/05/06 03:38:19;;;;;;;6.05;2.40;;;11.00;99.90;;;;;;5044421;28;20035;-72
2023/05/06 03:40:44;;;;;;;4.10;2.20;;;11.00;99.90;;;;;;5050505;28;20489;-72
2023/05/06 03:43:10;;;;;;;4.45;2.50;;;11.00;99.90;;;;;;5047682;28;20215;-73
2023/05/06 03:45:36;;;;;;;5.45;2.50;;;10.90;99.90;;;;;;5030327;28;20040;-72
2023/05/06 03:48:02;;;;;;;7.18;2.85;;;10.90;99.90;;;;;;5050813;28;20037;-73
2023/05/06 03:50:28;;;;;;;7.57;3.30;;;10.90;99.90;;;;;;5049435;28;20047;-72
2023/05/06 03:52:53;;;;;;;6.05;3.17;;;10.80;99.90;;;;;;5034277;28;20132;-72
2023/05/06 03:55:19;;;;;;;5.57;2.80;;;10.70;99.90;;;;;;5020155;28;20038;-73
2023/05/06 03:57:44;;;;;;;5.55;2.95;;;10.60;99.90;;;;;;5034813;28;20044;-72
2023/05/06 04:00:11;;;;;;;6.60;3.10;;;10.60;99.90;;;;;;5029654;28;20397;-73
2023/05/06 04:02:36;;;;;;;7.28;3.60;;;10.50;99.90;;;;;;5052523;28;20051;-72
2023/05/06 04:05:02;;;;;;;7.85;3.33;;;10.50;99.90;;;;;;5027719;28;20029;-73
2023/05/06 04:07:29;;;;;;;4.82;2.95;;;10.50;99.90;;;;;;5027286;28;20453;-73
2023/05/06 04:09:54;;;;;;;4.88;2.90;;;10.40;99.90;;;;;;5045092;28;20378;-72
2023/05/06 04:12:20;;;;;;;4.90;3.05;;;10.50;99.90;;;;;;5026536;28;20040;-72
2023/05/06 04:14:45;;;;;;;5.47;3.30;;;10.50;99.90;;;;;;5054869;28;20124;-72
2023/05/06 04:17:11;;;;;;;4.30;2.60;;;10.50;99.90;;;;;;5045326;28;20024;-72
2023/05/06 04:19:37;;;;;;;4.88;3.22;;;10.50;99.90;;;;;;5034324;28;20540;-72
2023/05/06 04:22:02;;;;;;;5.90;2.70;;;10.40;99.90;;;;;;5053586;28;20040;-72
2023/05/06 04:24:30;;;;;;;4.20;2.72;;;10.30;99.90;;;;;;5054494;28;20066;-72
2023/05/06 04:26:55;;;;;;;4.65;3.03;;;10.30;99.90;;;;;;5042236;28;20037;-72
2023/05/06 04:29:21;;;;;;;90.68;83.05;;;10.30;99.90;;;;;;5049287;28;20378;-72
2023/05/06 04:31:47;;;;;;;21.17;19.23;;;10.30;99.90;;;;;;5053043;28;20095;-72
2023/05/06 04:34:12;;;;;;;6.05;3.40;;;10.30;99.90;;;;;;5036767;28;20378;-72
2023/05/06 04:36:38;;;;;;;3.97;2.92;;;10.30;99.90;;;;;;5053081;28;20094;-72
2023/05/06 04:39:05;;;;;;;5.03;3.28;;;10.40;99.90;;;;;;5052716;28;20044;-72
2023/05/06 04:41:32;;;;;;;6.20;3.47;;;10.40;99.90;;;;;;5051588;28;20063;-72
2023/05/06 04:43:57;;;;;;;6.07;3.22;;;10.40;99.90;;;;;;5058225;28;20514;-72
2023/05/06 04:46:23;;;;;;;3.72;2.50;;;10.40;99.90;;;;;;5065748;28;20075;-72
2023/05/06 04:48:49;;;;;;;2.78;2.03;;;10.50;99.90;;;;;;5051320;28;20067;-72
2023/05/06 04:51:14;;;;;;;3.42;2.40;;;10.50;99.90;;;;;;5052923;28;20400;-72
2023/05/06 04:53:40;;;;;;;5.10;2.72;;;10.50;99.90;;;;;;5035372;28;20047;-72
2023/05/06 04:56:06;;;;;;;4.88;3.10;;;10.50;99.90;;;;;;5052352;28;20041;-72
2023/05/06 04:58:32;;;;;;;5.15;3.40;;;10.40;99.90;;;;;;5042495;28;20041;-72
2023/05/06 05:01:03;;;;;;;5.28;3.28;;;10.40;99.90;;;;;;5053149;28;20499;-73
2023/05/06 05:03:29;;;;;;;6.70;4.10;;;10.40;99.90;;;;;;5045909;28;20401;-73
2023/05/06 05:05:54;;;;;;;3.38;2.22;;;10.50;99.90;;;;;;5024044;28;20295;-73
2023/05/06 05:08:20;;;;;;;3.25;2.10;;;10.50;99.90;;;;;;5031686;28;20435;-72
2023/05/06 05:10:46;;;;;;;3.17;2.30;;;10.50;99.90;;;;;;5051971;28;20588;-73
2023/05/06 05:13:12;;;;;;;4.50;3.00;;;10.60;99.90;;;;;;5048650;28;20120;-72
2023/05/06 05:15:38;;;;;;;6.10;3.70;;;10.60;99.90;;;;;;5038939;28;20397;-72
2023/05/06 05:18:04;;;;;;;5.47;3.70;;;10.60;99.90;;;;;;5023729;28;20037;-72
2023/05/06 05:20:30;;;;;;;7.53;4.38;;;10.70;99.90;;;;;;5066720;28;20172;-72
2023/05/06 05:22:56;;;;;;;7.18;4.50;;;10.70;99.90;;;;;;5051489;28;20120;-72
2023/05/06 05:25:21;;;;;;;9.95;5.22;;;10.70;99.90;;;;;;5031545;28;20041;-72
2023/05/06 05:27:47;;;;;;;9.07;6.07;;;10.90;99.90;;;;;;5051104;28;20481;-72
2023/05/06 05:30:13;;;;;;;11.02;6.35;;;11.00;99.90;;;;;;5051920;28;20047;-72
2023/05/06 05:32:39;;;;;;;10.00;7.05;;;11.00;99.90;;;;;;5048313;28;20635;-73
2023/05/06 05:35:05;;;;;;;10.32;7.32;;;11.00;99.90;;;;;;5033212;28;20116;-73
2023/05/06 05:37:31;;;;;;;10.00;6.50;;;11.00;99.90;;;;;;5042951;28;20037;-73
2023/05/06 05:39:57;;;;;;;12.05;7.00;;;11.00;99.90;;;;;;5050169;28;20056;-73
2023/05/06 05:42:22;;;;;;;10.45;7.03;;;11.10;99.90;;;;;;5044173;28;20033;-73
2023/05/06 05:44:48;;;;;;;10.50;6.20;;;11.10;99.90;;;;;;5021552;28;20040;-91
2023/05/06 05:47:14;;;;;;;13.35;9.38;;;11.20;99.90;;;;;;5045005;28;20128;-71
2023/05/06 05:49:39;;;;;;;14.20;9.60;;;11.20;99.90;;;;;;5049631;28;20041;-70
2023/05/06 05:52:06;;;;;;;14.30;10.65;;;11.20;99.90;;;;;;5049361;28;20061;-70
2023/05/06 05:54:31;;;;;;;14.82;10.00;;;11.30;99.90;;;;;;5016378;28;20056;-70
2023/05/06 05:56:57;;;;;;;12.15;9.10;;;11.30;99.90;;;;;;5032523;28;20037;-71
2023/05/06 05:59:23;;;;;;;12.48;9.20;;;11.40;99.90;;;;;;5026592;28;20067;-69
2023/05/06 06:01:49;;;;;;;14.40;9.93;;;11.50;99.90;;;;;;5016216;28;20084;-70
2023/05/06 06:04:14;;;;;;;14.35;10.13;;;11.40;99.90;;;;;;5049458;28;20041;-69
2023/05/06 06:06:40;;;;;;;15.00;10.82;;;11.50;99.90;;;;;;5044032;28;20463;-70
2023/05/06 06:09:06;;;;;;;15.30;10.88;;;11.50;99.90;;;;;;5052903;28;20048;-70
2023/05/06 06:11:32;;;;;;;15.18;9.50;;;11.50;99.90;;;;;;5052426;28;20052;-70
2023/05/06 06:13:57;;;;;;;15.38;10.70;;;11.50;99.90;;;;;;5050907;28;20513;-69
2023/05/06 06:16:23;;;;;;;15.73;9.75;;;11.50;99.90;;;;;;5052513;28;20036;-69
2023/05/06 06:18:49;;;;;;;14.10;9.85;;;11.50;99.90;;;;;;5035731;28;20124;-70
2023/05/06 06:21:14;;;;;;;15.20;11.25;;;11.60;99.90;;;;;;5041770;28;20047;-70
2023/05/06 06:23:40;;;;;;;15.07;10.82;;;11.70;99.90;;;;;;5052539;28;20036;-70
2023/05/06 06:26:05;;;;;;;15.15;11.05;;;11.70;99.90;;;;;;5029152;28;20490;-70
2023/05/06 06:28:31;;;;;;;16.33;12.25;;;11.80;99.90;;;;;;5016147;28;20072;-70
2023/05/06 06:30:57;;;;;;;21.88;14.40;;;12.00;99.90;;;;;;5032290;28;20490;-71
2023/05/06 06:33:22;;;;;;;17.88;13.38;;;12.20;99.90;;;;;;5023788;28;20040;-70
2023/05/06 06:35:48;;;;;;;17.50;12.75;;;12.30;99.90;;;;;;5049951;28;20500;-80
2023/05/06 06:38:13;;;;;;;18.80;13.35;;;12.30;99.90;;;;;;5040761;28;20112;-70
2023/05/06 06:40:39;;;;;;;17.58;13.18;;;12.50;99.90;;;;;;5015877;28;20038;-69
2023/05/06 06:43:04;;;;;;;18.73;13.35;;;12.50;99.90;;;;;;5015943;28;20038;-71
2023/05/06 06:45:30;;;;;;;18.67;13.10;;;12.50;99.90;;;;;;5031888;28;20087;-71
2023/05/06 06:47:56;;;;;;;18.77;13.80;;;12.50;99.90;;;;;;5031697;28;20046;-70
2023/05/06 06:50:21;;;;;;;19.75;12.98;;;12.50;99.90;;;;;;5048651;28;20494;-71
2023/05/06 06:52:47;;;;;;;20.60;14.27;;;12.50;99.90;;;;;;5031830;28;20053;-70
2023/05/06 06:55:12;;;;;;;19.38;13.57;;;12.60;99.90;;;;;;5048617;28;20034;-70
2023/05/06 06:57:38;;;;;;;19.08;14.27;;;12.50;99.90;;;;;;5015550;28;20095;-70
2023/05/06 07:00:04;;;;;;;19.95;15.02;;;12.50;99.90;;;;;;5031993;28;20143;-69
2023/05/06 07:02:30;;;;;;;21.58;15.20;;;12.50;99.90;;;;;;5031847;28;20036;-70
2023/05/06 07:04:55;;;;;;;20.38;16.55;;;12.50;99.90;;;;;;5031854;28;20037;-70
2023/05/06 07:07:21;;;;;;;22.02;15.55;;;12.60;99.90;;;;;;5031922;28;20041;-69
2023/05/06 07:09:47;;;;;;;20.95;15.27;;;12.60;99.90;;;;;;5032046;28;20034;-70
2023/05/06 07:12:12;;;;;;;22.98;15.68;;;12.70;99.90;;;;;;5032010;28;20083;-70
2023/05/06 07:14:38;;;;;;;19.20;13.60;;;12.70;99.90;;;;;;5058955;28;20052;-70
2023/05/06 07:17:03;;;;;;;18.58;13.60;;;12.80;99.90;;;;;;5050931;28;20033;-70
2023/05/06 07:19:30;;;;;;;19.20;14.10;;;12.80;99.90;;;;;;5035384;28;20102;-70
2023/05/06 07:21:56;;;;;;;19.25;13.40;;;12.80;99.90;;;;;;5034990;28;20072;-70
2023/05/06 07:24:22;;;;;;;17.15;13.48;;;12.80;99.90;;;;;;5051579;28;20048;-70
2023/05/06 07:26:47;;;;;;;20.25;15.23;;;12.90;99.90;;;;;;5055105;28;20048;-70
2023/05/06 07:29:13;;;;;;;17.02;12.98;;;12.90;99.90;;;;;;5039318;28;20051;-70
2023/05/06 07:31:39;;;;;;;18.60;13.90;;;12.90;99.90;;;;;;5055574;28;20037;-69
2023/05/06 07:34:05;;;;;;;19.23;14.65;;;13.00;99.90;;;;;;5055416;28;20037;-70
2023/05/06 07:36:34;;;;;;;20.02;13.95;;;13.10;99.90;;;;;;5055740;28;20037;-70
2023/05/06 07:39:00;;;;;;;18.20;13.45;;;13.20;99.90;;;;;;5055681;28;20060;-70
2023/05/06 07:41:25;;;;;;;19.58;13.48;;;13.20;99.90;;;;;;5055431;28;20422;-70
2023/05/06 07:43:51;;;;;;;18.52;14.38;;;13.30;99.90;;;;;;5054466;28;20041;-69
2023/05/06 07:46:16;;;;;;;18.73;14.15;;;13.40;99.90;;;;;;5039069;28;20033;-70
2023/05/06 07:48:42;;;;;;;20.30;14.60;;;13.50;99.90;;;;;;5055336;28;20124;-70
2023/05/06 07:51:07;;;;;;;18.27;13.32;;;13.60;99.90;;;;;;5038681;28;20451;-70
2023/05/06 07:53:34;;;;;;;18.27;12.40;;;13.80;99.90;;;;;;5038357;28;20049;-70
2023/05/06 07:56:01;;;;;;;16.85;12.82;;;13.90;99.90;;;;;;5055419;28;20148;-70
2023/05/06 07:58:30;;;;;;;20.20;14.30;;;14.10;99.90;;;;;;5038480;28;20486;-70
2023/05/06 08:00:56;;;;;;;17.20;11.88;;;14.20;99.90;;;;;;5055078;28;20037;-70
2023/05/06 08:03:22;;;;;;;17.27;12.55;;;14.30;99.90;;;;;;5054932;28;20062;-70
2023/05/06 08:05:51;;;;;;;18.60;11.50;;;14.40;99.90;;;;;;5054937;28;20041;-70
2023/05/06 08:08:18;;;;;;;15.70;11.55;;;14.70;99.90;;;;;;5054946;28;20041;-70
2023/05/06 08:10:44;;;;;;;17.88;12.15;;;14.70;99.90;;;;;;5054918;28;20500;-70
2023/05/06 08:13:10;;;;;;;15.63;12.55;;;14.90;99.90;;;;;;5053776;28;20045;-70
2023/05/06 08:15:36;;;;;;;15.75;11.35;;;14.90;99.90;;;;;;5038212;28;20037;-70
2023/05/06 08:18:02;;;;;;;17.05;12.27;;;15.00;99.90;;;;;;5038402;28;20079;-71
2023/05/06 08:20:28;;;;;;;15.65;11.90;;;15.00;99.90;;;;;;5054874;28;20044;-71
2023/05/06 08:22:53;;;;;;;15.43;11.60;;;15.20;99.90;;;;;;5053659;28;20041;-70
2023/05/06 08:25:19;;;;;;;14.85;9.70;;;15.30;99.90;;;;;;5054625;28;20048;-70
2023/05/06 08:27:45;;;;;;;13.43;9.75;;;15.40;99.90;;;;;;5054877;28;20135;-71
2023/05/06 08:30:11;;;;;;;12.15;9.50;;;15.60;99.90;;;;;;5036967;28;20038;-70
2023/05/06 08:32:38;;;;;;;13.82;8.73;;;15.60;99.90;;;;;;5054354;28;20033;-70
2023/05/06 08:35:05;;;;;;;12.98;9.80;;;15.80;99.90;;;;;;5054372;28;20045;-70
2023/05/06 08:37:30;;;;;;;14.10;8.93;;;15.80;99.90;;;;;;5053805;28;20367;-70
2023/05/06 08:39:56;;;;;;;13.05;8.02;;;15.80;99.90;;;;;;5037978;28;20132;-71
2023/05/06 08:42:24;;;;;;;12.68;8.75;;;16.00;99.90;;;;;;5037725;28;20123;-71
2023/05/06 08:44:51;;;;;;;12.40;8.20;;;16.10;99.90;;;;;;5054451;28;20049;-71
2023/05/06 08:47:20;;;;;;;12.77;7.72;;;16.10;99.90;;;;;;5054251;28;20128;-71
2023/05/06 08:49:47;;;;;;;13.30;8.48;;;16.20;99.90;;;;;;5036828;28;20045;-70
2023/05/06 08:52:13;;;;;;;10.63;7.20;;;16.20;99.90;;;;;;5053915;28;20531;-71
2023/05/06 08:54:40;;;;;;;13.63;8.70;;;16.40;99.90;;;;;;5053928;28;20076;-71
2023/05/06 08:57:10;;;;;;;12.05;7.78;;;16.30;99.90;;;;;;5054287;28;20058;-71
2023/05/06 08:59:36;;;;;;;12.40;8.63;;;16.40;99.90;;;;;;5070761;28;20040;-70
2023/05/06 09:02:03;;;;;;;11.73;7.57;;;16.50;99.90;;;;;;5054028;28;20036;-71
2023/05/06 09:04:29;;;;;;;10.15;5.80;;;16.50;99.90;;;;;;5070449;28;20052;-71
2023/05/06 09:06:57;;;;;;;10.18;6.03;;;16.70;99.90;;;;;;5053887;28;20053;-71
2023/05/06 09:09:23;;;;;;;9.18;6.13;;;16.60;99.90;;;;;;5052888;28;20099;-72
2023/05/06 09:11:56;;;;;;;9.90;5.63;;;16.70;99.90;;;;;;5050442;28;20497;-71
2023/05/06 09:14:22;;;;;;;9.45;5.32;;;16.80;99.90;;;;;;5033592;28;20076;-71
2023/05/06 09:16:50;;;;;;;9.60;5.40;;;16.90;99.90;;;;;;5033989;28;20048;-71
2023/05/06 09:19:17;;;;;;;10.82;5.97;;;16.90;99.90;;;;;;5033653;28;20091;-71
2023/05/06 09:21:45;;;;;;;10.75;6.57;;;17.00;99.90;;;;;;5033623;28;20125;-71
2023/05/06 09:24:12;;;;;;;11.25;7.05;;;17.00;99.90;;;;;;5031484;28;20052;-71
2023/05/06 09:26:39;;;;;;;11.25;6.90;;;17.00;99.90;;;;;;5020902;28;20383;-71
2023/05/06 09:29:05;;;;;;;11.27;7.30;;;17.10;99.90;;;;;;5020987;28;20116;-71
2023/05/06 09:31:31;;;;;;;11.45;6.93;;;17.10;99.90;;;;;;5028747;28;20075;-71
2023/05/06 09:33:59;;;;;;;9.55;5.68;;;17.30;99.90;;;;;;5042870;28;20068;-71
2023/05/06 09:36:26;;;;;;;10.43;5.82;;;17.50;99.90;;;;;;5049014;28;20128;-71
2023/05/06 09:38:54;;;;;;;10.02;6.15;;;17.60;99.90;;;;;;5024347;28;20033;-71
2023/05/06 09:41:21;;;;;;;10.55;6.18;;;17.50;99.90;;;;;;5035529;28;20033;-71
2023/05/06 09:43:48;;;;;;;11.63;6.78;;;17.70;99.90;;;;;;5040504;28;20048;-71
2023/05/06 09:46:16;;;;;;;11.23;7.72;;;17.60;99.90;;;;;;5032427;28;20123;-72
2023/05/06 09:48:42;;;;;;;12.23;7.50;;;17.60;99.90;;;;;;5051900;28;20119;-71
2023/05/06 09:51:08;;;;;;;11.65;6.70;;;17.70;99.90;;;;;;5041869;28;20199;-71
2023/05/06 09:53:36;;;;;;;11.25;7.20;;;17.70;99.90;;;;;;5044180;28;20037;-71
2023/05/06 09:56:06;;;;;;;10.90;6.38;;;17.60;99.90;;;;;;5029628;28;20106;-72
2023/05/06 09:58:33;;;;;;;12.45;7.65;;;17.70;99.90;;;;;;5062916;28;20519;-71
2023/05/06 10:01:00;;;;;;;13.05;7.78;;;17.80;99.90;;;;;;5023017;28;20041;-71
2023/05/06 10:03:26;;;;;;;10.45;7.65;;;17.80;99.90;;;;;;5035255;28;20048;-71
2023/05/06 10:05:53;;;;;;;11.55;6.53;;;18.00;99.90;;;;;;5045457;28;20041;-72
2023/05/06 10:08:21;;;;;;;11.50;7.85;;;18.20;99.90;;;;;;5028697;28;20137;-71
2023/05/06 10:10:49;;;;;;;12.68;8.10;;;18.20;99.90;;;;;;5040525;28;20037;-71
2023/05/06 10:13:15;;;;;;;13.48;9.45;;;18.20;99.90;;;;;;5028005;28;20048;-71
2023/05/06 10:15:44;;;;;;;12.82;9.10;;;18.20;99.90;;;;;;5035212;28;20117;-72
2023/05/06 10:18:10;;;;;;;13.00;8.90;;;18.40;99.90;;;;;;5028558;28;20041;-72
2023/05/06 10:20:37;;;;;;;12.75;8.55;;;18.30;99.90;;;;;;5051812;28;20126;-72
2023/05/06 10:23:15;;;;;;;12.85;8.52;;;18.40;99.90;;;;;;5038294;28;20081;-71
2023/05/06 10:25:43;;;;;;;13.55;9.27;;;18.60;99.90;;;;;;5036436;28;20497;-72
2023/05/06 10:28:10;;;;;;;13.48;9.75;;;18.60;99.90;;;;;;5044876;28;20033;-71
2023/05/06 10:30:38;;;;;;;12.85;9.40;;;18.70;99.90;;;;;;5021915;28;20041;-72
2023/05/06 10:33:08;;;;;;;14.35;9.43;;;18.60;99.90;;;;;;5047298;28;20132;-72
2023/05/06 10:35:40;;;;;;;13.75;9.93;;;18.60;99.90;;;;;;5031706;28;20076;-72
2023/05/06 10:38:16;;;;;;;13.43;8.77;;;18.40;99.90;;;;;;5032630;28;20040;-72
2023/05/06 10:40:42;;;;;;;13.23;9.48;;;18.50;99.90;;;;;;5034757;28;20067;-71
2023/05/06 10:43:27;;;;;;;15.02;10.55;;;18.40;99.90;;;;;;5037771;28;20095;-71
2023/05/06 10:46:06;;;;;;;13.43;7.97;;;18.30;99.90;;;;;;5018814;28;20033;-71
2023/05/06 10:48:32;;;;;;;10.93;7.70;;;18.30;99.90;;;;;;5048328;28;20457;-71
2023/05/06 10:51:20;;;;;;;14.65;9.02;;;18.40;99.90;;;;;;5023622;28;20211;-71
2023/05/06 10:54:17;;;;;;;15.98;10.40;;;18.50;99.90;;;;;;5034594;28;20116;-72
2023/05/06 10:56:49;;;;;;;14.23;8.48;;;18.70;99.90;;;;;;5051239;28;20032;-71
2023/05/06 10:59:20;;;;;;;12.23;6.63;;;18.80;99.90;;;;;;5031856;28;20367;-71
2023/05/06 11:02:02;;;;;;;13.18;8.57;;;19.20;99.90;;;;;;5027879;28;20108;-71
2023/05/06 11:04:30;;;;;;;13.48;9.35;;;19.10;99.90;;;;;;5031308;28;20498;-71
2023/05/06 11:07:19;;;;;;;13.88;9.65;;;19.10;99.90;;;;;;5045318;28;20076;-72
2023/05/06 11:10:06;;;;;;;16.80;11.25;;;19.10;99.90;;;;;;5031197;28;20099;-71
2023/05/06 11:12:50;;;;;;;16.08;11.38;;;19.10;99.90;;;;;;5031104;28;20045;-71
2023/05/06 11:15:39;;;;;;;14.07;10.50;;;18.80;99.90;;;;;;5043871;28;20041;-71
2023/05/06 11:18:23;;;;;;;14.55;11.38;;;18.80;99.90;;;;;;5047435;28;20036;-71
2023/05/06 11:21:01;;;;;;;15.68;11.52;;;18.80;99.90;;;;;;5049802;28;20041;-72
2023/05/06 11:23:53;;;;;;;14.13;10.48;;;18.60;99.90;;;;;;5031448;28;20041;-71
2023/05/06 11:26:20;;;;;;;19.63;11.65;;;18.60;99.90;;;;;;5026127;28;20072;-71
2023/05/06 11:28:47;;;;;;;17.98;11.15;;;18.50;99.90;;;;;;5023227;28;20086;-72
2023/05/06 11:31:13;;;;;;;14.93;10.52;;;18.30;99.90;;;;;;5064439;28;20110;-72
2023/05/06 11:33:47;;;;;;;16.55;10.43;;;18.40;99.90;;;;;;5042171;28;20087;-72
2023/05/06 11:36:17;;;;;;;14.23;10.82;;;18.30;99.90;;;;;;5030667;28;20048;-72
2023/05/06 11:38:49;;;;;;;18.40;13.50;;;18.40;99.90;;;;;;5030894;28;20482;-72
2023/05/06 11:41:15;;;;;;;17.13;11.85;;;18.50;99.90;;;;;;5031069;28;20111;-72
2023/05/06 11:43:52;;;;;;;17.58;12.60;;;18.40;99.90;;;;;;5021187;28;20438;-72
2023/05/06 11:46:18;;;;;;;16.40;12.95;;;18.60;99.90;;;;;;5037144;28;20401;-72
2023/05/06 11:48:44;;;;;;;18.77;14.82;;;18.50;99.90;;;;;;5047349;28;20033;-72
2023/05/06 11:51:09;;;;;;;17.13;14.00;;;18.50;99.90;;;;;;5051668;28;20421;-72
2023/05/06 11:53:36;;;;;;;21.42;16.85;;;18.60;99.90;;;;;;5039137;28;20046;-72
2023/05/06 11:56:04;;;;;;;22.00;17.40;;;18.60;99.90;;;;;;5030885;28;20069;-72
2023/05/06 11:58:29;;;;;;;19.10;14.52;;;18.70;99.90;;;;;;5033824;28;20489;-72
2023/05/06 12:01:00;;;;;;;19.25;16.60;;;18.80;99.90;;;;;;5050661;28;20044;-72
2023/05/06 12:03:27;;;;;;;18.38;11.80;;;18.90;99.90;;;;;;5035999;28;20049;-72
2023/05/06 12:05:54;;;;;;;14.48;9.07;;;19.10;99.90;;;;;;5030981;28;20045;-72
2023/05/06 12:08:25;;;;;;;18.67;13.38;;;19.20;99.90;;;;;;5027770;28;20041;-72
2023/05/06 12:10:52;;;;;;;17.17;12.50;;;19.10;99.90;;;;;;5047279;28;20113;-72
2023/05/06 12:13:18;;;;;;;18.88;13.45;;;19.10;99.90;;;;;;5032764;28;20075;-73
2023/05/06 12:15:46;;;;;;;17.05;12.35;;;19.00;99.90;;;;;;5034010;28;20030;-73
2023/05/06 12:18:12;;;;;;;18.35;12.80;;;19.00;99.90;;;;;;5028440;28;20082;-73
2023/05/06 12:20:37;;;;;;;18.42;14.15;;;19.00;99.90;;;;;;5037254;28;20289;-73
2023/05/06 12:23:11;;;;;;;17.08;13.77;;;18.90;99.90;;;;;;5026381;28;20033;-73
2023/05/06 12:25:38;;;;;;;16.95;13.73;;;18.80;99.90;;;;;;5033788;28;20114;-73
2023/05/06 12:28:18;;;;;;;16.30;12.57;;;18.80;99.90;;;;;;5034321;28;20485;-73
2023/05/06 12:30:44;;;;;;;17.60;12.73;;;18.90;99.90;;;;;;5041125;28;20435;-73
2023/05/06 12:33:10;;;;;;;14.65;11.50;;;19.10;99.90;;;;;;5049030;28;20528;-73
2023/05/06 12:35:37;;;;;;;12.18;8.70;;;19.10;99.90;;;;;;5044453;28;20432;-73
2023/05/06 12:38:11;;;;;;;13.63;10.45;;;19.20;99.90;;;;;;5023309;28;20033;-73
2023/05/06 12:40:37;;;;;;;14.88;10.48;;;19.00;99.90;;;;;;5035382;28;20048;-73